sensor_id;sensor_type;location;lat;lon;timestamp;P1;durP1;ratioP1;P2;durP2;ratioP2
3343;SDS011;1685;53.104;8.228;2022-09-13T00:00:47;19.40;;;11.80;;
3343;SDS011;1685;53.104;8.228;2022-09-13T00:03:14;14.33;;;11.23;;
3343;SDS011;1685;53.104;8.228;2022-09-13T00:05:42;13.40;;;11.17;;
3343;SDS011;1685;53.104;8.228;2022-09-13T00:08:10;13.37;;;11.17;;
3343;SDS011;1685;53.104;8.228;2022-09-13T00:10:38;13.90;;;10.37;;
3343;SDS011;1685;53.104;8.228;2022-09-13T00:13:06;16.70;;;11.57;;
3343;SDS011;1685;53.104;8.228;2022-09-13T00:15:35;13.17;;;11.30;;
3343;SDS011;1685;53.104;8.228;2022-09-13T00:18:07;16.13;;;12.50;;
3343;SDS011;1685;53.104;8.228;2022-09-13T00:20:34;16.20;;;11.50;;
3343;SDS011;1685;53.104;8.228;2022-09-13T00:23:01;14.37;;;12.67;;
3343;SDS011;1685;53.104;8.228;2022-09-13T00:25:29;23.17;;;14.30;;
3343;SDS011;1685;53.104;8.228;2022-09-13T00:27:56;21.93;;;15.00;;
3343;SDS011;1685;53.104;8.228;2022-09-13T00:30:23;19.83;;;14.13;;
3343;SDS011;1685;53.104;8.228;2022-09-13T00:32:50;19.30;;;15.10;;
3343;SDS011;1685;53.104;8.228;2022-09-13T00:35:17;25.03;;;16.17;;
3343;SDS011;1685;53.104;8.228;2022-09-13T00:37:44;24.57;;;16.90;;
3343;SDS011;1685;53.104;8.228;2022-09-13T00:40:11;20.27;;;15.80;;
3343;SDS011;1685;53.104;8.228;2022-09-13T00:42:40;27.27;;;17.50;;
3343;SDS011;1685;53.104;8.228;2022-09-13T00:45:13;22.47;;;17.47;;
3343;SDS011;1685;53.104;8.228;2022-09-13T00:47:41;30.13;;;20.03;;
3343;SDS011;1685;53.104;8.228;2022-09-13T00:50:13;29.50;;;20.10;;
3343;SDS011;1685;53.104;8.228;2022-09-13T00:52:46;25.70;;;18.87;;
3343;SDS011;1685;53.104;8.228;2022-09-13T00:55:21;28.20;;;20.60;;
3343;SDS011;1685;53.104;8.228;2022-09-13T00:57:52;31.67;;;21.00;;
3343;SDS011;1685;53.104;8.228;2022-09-13T01:00:24;35.17;;;22.50;;
3343;SDS011;1685;53.104;8.228;2022-09-13T01:02:51;32.53;;;21.47;;
3343;SDS011;1685;53.104;8.228;2022-09-13T01:05:21;30.00;;;20.97;;
3343;SDS011;1685;53.104;8.228;2022-09-13T01:07:51;32.67;;;23.40;;
3343;SDS011;1685;53.104;8.228;2022-09-13T01:10:18;28.93;;;23.07;;
3343;SDS011;1685;53.104;8.228;2022-09-13T01:12:48;32.63;;;23.37;;
3343;SDS011;1685;53.104;8.228;2022-09-13T01:15:21;31.20;;;22.80;;
3343;SDS011;1685;53.104;8.228;2022-09-13T01:17:48;35.60;;;23.27;;
3343;SDS011;1685;53.104;8.228;2022-09-13T01:20:17;32.07;;;23.30;;
3343;SDS011;1685;53.104;8.228;2022-09-13T01:23:05;30.97;;;21.73;;
3343;SDS011;1685;53.104;8.228;2022-09-13T01:26:09;31.50;;;21.60;;
3343;SDS011;1685;53.104;8.228;2022-09-13T01:32:12;32.43;;;21.97;;
3343;SDS011;1685;53.104;8.228;2022-09-13T01:34:49;30.90;;;22.77;;
3343;SDS011;1685;53.104;8.228;2022-09-13T01:37:29;26.97;;;21.23;;
3343;SDS011;1685;53.104;8.228;2022-09-13T01:40:06;28.13;;;20.97;;
3343;SDS011;1685;53.104;8.228;2022-09-13T01:42:47;28.23;;;20.70;;
3343;SDS011;1685;53.104;8.228;2022-09-13T01:45:34;31.53;;;20.67;;
3343;SDS011;1685;53.104;8.228;2022-09-13T01:48:08;27.63;;;20.23;;
3343;SDS011;1685;53.104;8.228;2022-09-13T01:50:41;29.20;;;21.37;;
3343;SDS011;1685;53.104;8.228;2022-09-13T01:53:13;33.73;;;21.07;;
3343;SDS011;1685;53.104;8.228;2022-09-13T01:55:46;27.90;;;20.70;;
3343;SDS011;1685;53.104;8.228;2022-09-13T01:58:20;28.60;;;20.10;;
3343;SDS011;1685;53.104;8.228;2022-09-13T02:00:51;31.03;;;21.20;;
3343;SDS011;1685;53.104;8.228;2022-09-13T02:03:29;28.60;;;21.63;;
3343;SDS011;1685;53.104;8.228;2022-09-13T02:05:59;26.30;;;19.77;;
3343;SDS011;1685;53.104;8.228;2022-09-13T02:08:31;28.90;;;20.70;;
3343;SDS011;1685;53.104;8.228;2022-09-13T02:11:04;30.47;;;21.43;;
3343;SDS011;1685;53.104;8.228;2022-09-13T02:13:35;28.97;;;20.40;;
3343;SDS011;1685;53.104;8.228;2022-09-13T02:16:06;31.67;;;22.10;;
3343;SDS011;1685;53.104;8.228;2022-09-13T02:18:39;32.10;;;21.90;;
3343;SDS011;1685;53.104;8.228;2022-09-13T02:21:09;33.97;;;21.33;;
3343;SDS011;1685;53.104;8.228;2022-09-13T02:23:40;33.00;;;21.23;;
3343;SDS011;1685;53.104;8.228;2022-09-13T02:26:11;30.57;;;22.50;;
3343;SDS011;1685;53.104;8.228;2022-09-13T02:28:42;35.40;;;21.60;;
3343;SDS011;1685;53.104;8.228;2022-09-13T02:31:13;31.97;;;21.60;;
3343;SDS011;1685;53.104;8.228;2022-09-13T02:33:46;33.13;;;21.30;;
3343;SDS011;1685;53.104;8.228;2022-09-13T02:36:17;32.97;;;23.77;;
3343;SDS011;1685;53.104;8.228;2022-09-13T02:38:49;37.57;;;23.83;;
3343;SDS011;1685;53.104;8.228;2022-09-13T02:41:20;39.20;;;24.87;;
3343;SDS011;1685;53.104;8.228;2022-09-13T02:43:52;35.23;;;24.70;;
3343;SDS011;1685;53.104;8.228;2022-09-13T02:46:29;34.87;;;24.20;;
3343;SDS011;1685;53.104;8.228;2022-09-13T02:49:12;31.50;;;22.70;;
3343;SDS011;1685;53.104;8.228;2022-09-13T02:51:49;32.10;;;23.73;;
3343;SDS011;1685;53.104;8.228;2022-09-13T02:54:22;32.97;;;23.83;;
3343;SDS011;1685;53.104;8.228;2022-09-13T02:56:53;40.97;;;25.37;;
3343;SDS011;1685;53.104;8.228;2022-09-13T02:59:24;37.77;;;24.93;;
3343;SDS011;1685;53.104;8.228;2022-09-13T03:01:52;37.50;;;24.07;;
3343;SDS011;1685;53.104;8.228;2022-09-13T03:04:24;32.17;;;23.70;;
3343;SDS011;1685;53.104;8.228;2022-09-13T03:06:52;34.83;;;22.83;;
3343;SDS011;1685;53.104;8.228;2022-09-13T03:09:19;36.67;;;23.23;;
3343;SDS011;1685;53.104;8.228;2022-09-13T03:14:44;32.60;;;22.07;;
3343;SDS011;1685;53.104;8.228;2022-09-13T03:17:20;34.33;;;22.30;;
3343;SDS011;1685;53.104;8.228;2022-09-13T03:20:00;46.37;;;22.27;;
3343;SDS011;1685;53.104;8.228;2022-09-13T03:22:40;33.80;;;22.80;;
3343;SDS011;1685;53.104;8.228;2022-09-13T03:25:23;37.30;;;23.40;;
3343;SDS011;1685;53.104;8.228;2022-09-13T03:28:02;34.43;;;22.73;;
3343;SDS011;1685;53.104;8.228;2022-09-13T03:30:37;34.90;;;23.83;;
3343;SDS011;1685;53.104;8.228;2022-09-13T03:33:12;32.97;;;23.07;;
3343;SDS011;1685;53.104;8.228;2022-09-13T03:35:47;41.90;;;22.50;;
3343;SDS011;1685;53.104;8.228;2022-09-13T03:38:20;37.03;;;23.17;;
3343;SDS011;1685;53.104;8.228;2022-09-13T03:40:52;35.60;;;24.77;;
3343;SDS011;1685;53.104;8.228;2022-09-13T03:43:26;38.70;;;25.70;;
3343;SDS011;1685;53.104;8.228;2022-09-13T03:46:01;38.40;;;24.23;;
3343;SDS011;1685;53.104;8.228;2022-09-13T03:48:31;37.20;;;24.97;;
3343;SDS011;1685;53.104;8.228;2022-09-13T03:51:03;40.97;;;25.33;;
3343;SDS011;1685;53.104;8.228;2022-09-13T03:53:30;40.73;;;27.10;;
3343;SDS011;1685;53.104;8.228;2022-09-13T03:56:00;41.83;;;24.67;;
3343;SDS011;1685;53.104;8.228;2022-09-13T03:58:38;37.03;;;24.30;;
3343;SDS011;1685;53.104;8.228;2022-09-13T04:01:05;41.57;;;23.93;;
3343;SDS011;1685;53.104;8.228;2022-09-13T04:03:32;43.03;;;25.97;;
3343;SDS011;1685;53.104;8.228;2022-09-13T04:05:59;35.60;;;24.27;;
3343;SDS011;1685;53.104;8.228;2022-09-13T04:08:27;43.23;;;25.97;;
3343;SDS011;1685;53.104;8.228;2022-09-13T04:10:54;39.30;;;25.00;;
3343;SDS011;1685;53.104;8.228;2022-09-13T04:13:22;40.63;;;25.97;;
3343;SDS011;1685;53.104;8.228;2022-09-13T04:15:49;36.60;;;26.67;;
3343;SDS011;1685;53.104;8.228;2022-09-13T04:18:16;46.43;;;26.70;;
3343;SDS011;1685;53.104;8.228;2022-09-13T04:20:43;38.27;;;25.40;;
3343;SDS011;1685;53.104;8.228;2022-09-13T04:23:10;40.00;;;25.83;;
3343;SDS011;1685;53.104;8.228;2022-09-13T04:25:38;41.23;;;25.70;;
3343;SDS011;1685;53.104;8.228;2022-09-13T04:28:05;40.30;;;25.37;;
3343;SDS011;1685;53.104;8.228;2022-09-13T04:30:33;42.37;;;25.90;;
3343;SDS011;1685;53.104;8.228;2022-09-13T04:33:00;43.60;;;28.03;;
3343;SDS011;1685;53.104;8.228;2022-09-13T04:35:27;41.10;;;25.50;;
3343;SDS011;1685;53.104;8.228;2022-09-13T04:37:54;47.90;;;28.50;;
3343;SDS011;1685;53.104;8.228;2022-09-13T04:40:22;48.33;;;27.77;;
3343;SDS011;1685;53.104;8.228;2022-09-13T04:42:50;49.77;;;28.57;;
3343;SDS011;1685;53.104;8.228;2022-09-13T04:45:17;45.00;;;26.77;;
3343;SDS011;1685;53.104;8.228;2022-09-13T04:47:47;41.30;;;26.37;;
3343;SDS011;1685;53.104;8.228;2022-09-13T04:50:16;40.53;;;26.93;;
3343;SDS011;1685;53.104;8.228;2022-09-13T04:52:44;41.77;;;26.87;;
3343;SDS011;1685;53.104;8.228;2022-09-13T04:55:11;46.87;;;26.43;;
3343;SDS011;1685;53.104;8.228;2022-09-13T04:57:38;45.57;;;25.80;;
3343;SDS011;1685;53.104;8.228;2022-09-13T05:00:08;44.60;;;25.27;;
3343;SDS011;1685;53.104;8.228;2022-09-13T05:02:35;39.60;;;26.00;;
3343;SDS011;1685;53.104;8.228;2022-09-13T05:05:02;44.90;;;26.90;;
3343;SDS011;1685;53.104;8.228;2022-09-13T05:07:29;44.70;;;27.27;;
3343;SDS011;1685;53.104;8.228;2022-09-13T05:09:56;42.17;;;26.13;;
3343;SDS011;1685;53.104;8.228;2022-09-13T05:12:24;42.30;;;24.40;;
3343;SDS011;1685;53.104;8.228;2022-09-13T05:14:51;41.93;;;26.03;;
3343;SDS011;1685;53.104;8.228;2022-09-13T05:17:19;45.53;;;26.73;;
3343;SDS011;1685;53.104;8.228;2022-09-13T05:19:46;43.60;;;25.83;;
3343;SDS011;1685;53.104;8.228;2022-09-13T05:22:13;44.10;;;25.20;;
3343;SDS011;1685;53.104;8.228;2022-09-13T05:24:40;40.40;;;24.30;;
3343;SDS011;1685;53.104;8.228;2022-09-13T05:27:07;37.40;;;24.07;;
3343;SDS011;1685;53.104;8.228;2022-09-13T05:29:35;44.20;;;24.80;;
3343;SDS011;1685;53.104;8.228;2022-09-13T05:32:02;40.03;;;25.07;;
3343;SDS011;1685;53.104;8.228;2022-09-13T05:34:30;42.00;;;25.63;;
3343;SDS011;1685;53.104;8.228;2022-09-13T05:36:57;45.27;;;26.77;;
3343;SDS011;1685;53.104;8.228;2022-09-13T05:39:24;44.03;;;25.50;;
3343;SDS011;1685;53.104;8.228;2022-09-13T05:41:51;41.57;;;24.53;;
3343;SDS011;1685;53.104;8.228;2022-09-13T05:44:18;46.10;;;24.53;;
3343;SDS011;1685;53.104;8.228;2022-09-13T05:46:46;44.07;;;24.90;;
3343;SDS011;1685;53.104;8.228;2022-09-13T05:49:13;47.30;;;26.60;;
3343;SDS011;1685;53.104;8.228;2022-09-13T05:51:42;49.00;;;26.87;;
3343;SDS011;1685;53.104;8.228;2022-09-13T05:54:09;46.00;;;25.67;;
3343;SDS011;1685;53.104;8.228;2022-09-13T05:56:37;44.47;;;26.53;;
3343;SDS011;1685;53.104;8.228;2022-09-13T05:59:04;51.10;;;26.90;;
3343;SDS011;1685;53.104;8.228;2022-09-13T06:01:32;52.90;;;28.80;;
3343;SDS011;1685;53.104;8.228;2022-09-13T06:04:00;51.20;;;29.37;;
3343;SDS011;1685;53.104;8.228;2022-09-13T06:06:27;49.07;;;27.80;;
3343;SDS011;1685;53.104;8.228;2022-09-13T06:08:55;49.90;;;28.60;;
3343;SDS011;1685;53.104;8.228;2022-09-13T06:11:23;42.90;;;27.20;;
3343;SDS011;1685;53.104;8.228;2022-09-13T06:13:50;49.00;;;26.27;;
3343;SDS011;1685;53.104;8.228;2022-09-13T06:16:18;48.20;;;27.13;;
3343;SDS011;1685;53.104;8.228;2022-09-13T06:18:45;46.97;;;27.03;;
3343;SDS011;1685;53.104;8.228;2022-09-13T06:21:12;48.33;;;27.80;;
3343;SDS011;1685;53.104;8.228;2022-09-13T06:23:41;49.47;;;27.63;;
3343;SDS011;1685;53.104;8.228;2022-09-13T06:26:11;55.40;;;29.67;;
3343;SDS011;1685;53.104;8.228;2022-09-13T06:28:38;44.43;;;26.27;;
3343;SDS011;1685;53.104;8.228;2022-09-13T06:31:06;60.90;;;29.63;;
3343;SDS011;1685;53.104;8.228;2022-09-13T06:33:36;57.23;;;29.13;;
3343;SDS011;1685;53.104;8.228;2022-09-13T06:36:04;51.03;;;28.20;;
3343;SDS011;1685;53.104;8.228;2022-09-13T06:38:33;60.93;;;30.47;;
3343;SDS011;1685;53.104;8.228;2022-09-13T06:41:00;53.20;;;28.43;;
3343;SDS011;1685;53.104;8.228;2022-09-13T06:43:31;52.57;;;30.17;;
3343;SDS011;1685;53.104;8.228;2022-09-13T06:45:59;53.60;;;29.10;;
3343;SDS011;1685;53.104;8.228;2022-09-13T06:48:29;55.97;;;29.27;;
3343;SDS011;1685;53.104;8.228;2022-09-13T06:50:56;46.53;;;28.23;;
3343;SDS011;1685;53.104;8.228;2022-09-13T06:53:24;56.63;;;28.20;;
3343;SDS011;1685;53.104;8.228;2022-09-13T06:55:58;45.17;;;26.73;;
3343;SDS011;1685;53.104;8.228;2022-09-13T06:58:29;55.60;;;28.50;;
3343;SDS011;1685;53.104;8.228;2022-09-13T07:01:08;49.87;;;25.40;;
3343;SDS011;1685;53.104;8.228;2022-09-13T07:03:38;45.57;;;24.53;;
3343;SDS011;1685;53.104;8.228;2022-09-13T07:06:09;51.13;;;28.53;;
3343;SDS011;1685;53.104;8.228;2022-09-13T07:08:38;48.00;;;25.60;;
3343;SDS011;1685;53.104;8.228;2022-09-13T07:11:05;53.30;;;26.73;;
3343;SDS011;1685;53.104;8.228;2022-09-13T07:13:33;45.00;;;25.70;;
3343;SDS011;1685;53.104;8.228;2022-09-13T07:16:01;49.70;;;26.13;;
3343;SDS011;1685;53.104;8.228;2022-09-13T07:18:30;47.23;;;26.40;;
3343;SDS011;1685;53.104;8.228;2022-09-13T07:21:00;40.60;;;25.80;;
3343;SDS011;1685;53.104;8.228;2022-09-13T07:23:29;41.03;;;24.00;;
3343;SDS011;1685;53.104;8.228;2022-09-13T07:25:56;51.70;;;26.03;;
3343;SDS011;1685;53.104;8.228;2022-09-13T07:28:28;46.57;;;24.20;;
3343;SDS011;1685;53.104;8.228;2022-09-13T07:31:03;42.07;;;25.27;;
3343;SDS011;1685;53.104;8.228;2022-09-13T07:33:35;49.23;;;26.70;;
3343;SDS011;1685;53.104;8.228;2022-09-13T07:36:02;43.40;;;24.90;;
3343;SDS011;1685;53.104;8.228;2022-09-13T07:38:31;41.87;;;24.47;;
3343;SDS011;1685;53.104;8.228;2022-09-13T07:40:59;42.60;;;22.23;;
3343;SDS011;1685;53.104;8.228;2022-09-13T07:43:26;44.93;;;23.80;;
3343;SDS011;1685;53.104;8.228;2022-09-13T07:45:57;50.40;;;23.77;;
3343;SDS011;1685;53.104;8.228;2022-09-13T07:48:25;44.43;;;24.80;;
3343;SDS011;1685;53.104;8.228;2022-09-13T07:50:56;44.23;;;24.43;;
3343;SDS011;1685;53.104;8.228;2022-09-13T07:53:24;34.73;;;20.60;;
3343;SDS011;1685;53.104;8.228;2022-09-13T07:55:51;35.40;;;18.77;;
3343;SDS011;1685;53.104;8.228;2022-09-13T07:58:18;29.43;;;14.20;;
3343;SDS011;1685;53.104;8.228;2022-09-13T08:00:45;20.70;;;12.60;;
3343;SDS011;1685;53.104;8.228;2022-09-13T08:03:12;22.23;;;12.27;;
3343;SDS011;1685;53.104;8.228;2022-09-13T08:05:40;21.17;;;11.33;;
3343;SDS011;1685;53.104;8.228;2022-09-13T08:08:08;22.30;;;11.47;;
3343;SDS011;1685;53.104;8.228;2022-09-13T08:10:35;21.67;;;11.23;;
3343;SDS011;1685;53.104;8.228;2022-09-13T08:13:02;18.63;;;11.37;;
3343;SDS011;1685;53.104;8.228;2022-09-13T08:15:29;15.83;;;9.57;;
3343;SDS011;1685;53.104;8.228;2022-09-13T08:17:56;19.23;;;8.67;;
3343;SDS011;1685;53.104;8.228;2022-09-13T08:20:23;14.80;;;8.70;;
3343;SDS011;1685;53.104;8.228;2022-09-13T08:22:50;23.87;;;8.97;;
3343;SDS011;1685;53.104;8.228;2022-09-13T08:25:19;22.80;;;8.40;;
3343;SDS011;1685;53.104;8.228;2022-09-13T08:27:45;12.30;;;8.57;;
3343;SDS011;1685;53.104;8.228;2022-09-13T08:30:12;14.10;;;7.53;;
3343;SDS011;1685;53.104;8.228;2022-09-13T08:32:39;15.93;;;8.80;;
3343;SDS011;1685;53.104;8.228;2022-09-13T08:35:07;17.70;;;7.10;;
3343;SDS011;1685;53.104;8.228;2022-09-13T08:37:34;10.97;;;7.20;;
3343;SDS011;1685;53.104;8.228;2022-09-13T08:40:01;13.60;;;4.47;;
3343;SDS011;1685;53.104;8.228;2022-09-13T08:42:32;15.77;;;5.00;;
3343;SDS011;1685;53.104;8.228;2022-09-13T08:45:11;11.53;;;3.70;;
3343;SDS011;1685;53.104;8.228;2022-09-13T08:47:39;7.10;;;3.87;;
3343;SDS011;1685;53.104;8.228;2022-09-13T08:50:10;13.83;;;3.60;;
3343;SDS011;1685;53.104;8.228;2022-09-13T08:52:43;5.47;;;4.00;;
3343;SDS011;1685;53.104;8.228;2022-09-13T08:55:20;7.23;;;4.40;;
3343;SDS011;1685;53.104;8.228;2022-09-13T08:57:54;7.43;;;3.20;;
3343;SDS011;1685;53.104;8.228;2022-09-13T09:00:28;6.03;;;3.00;;
3343;SDS011;1685;53.104;8.228;2022-09-13T09:03:01;9.90;;;3.20;;
3343;SDS011;1685;53.104;8.228;2022-09-13T09:05:43;10.93;;;3.20;;
3343;SDS011;1685;53.104;8.228;2022-09-13T09:08:13;2.80;;;2.60;;
3343;SDS011;1685;53.104;8.228;2022-09-13T09:10:45;12.37;;;2.60;;
3343;SDS011;1685;53.104;8.228;2022-09-13T09:13:17;3.83;;;2.10;;
3343;SDS011;1685;53.104;8.228;2022-09-13T09:15:51;11.33;;;2.80;;
3343;SDS011;1685;53.104;8.228;2022-09-13T09:18:21;4.60;;;1.70;;
3343;SDS011;1685;53.104;8.228;2022-09-13T09:20:52;3.90;;;1.80;;
3343;SDS011;1685;53.104;8.228;2022-09-13T09:23:22;9.03;;;1.80;;
3343;SDS011;1685;53.104;8.228;2022-09-13T09:25:55;19.50;;;2.10;;
3343;SDS011;1685;53.104;8.228;2022-09-13T09:28:24;4.50;;;1.93;;
3343;SDS011;1685;53.104;8.228;2022-09-13T09:30:56;2.40;;;1.47;;
3343;SDS011;1685;53.104;8.228;2022-09-13T09:33:35;5.67;;;1.87;;
3343;SDS011;1685;53.104;8.228;2022-09-13T09:36:11;8.00;;;2.00;;
3343;SDS011;1685;53.104;8.228;2022-09-13T09:38:42;2.63;;;1.37;;
3343;SDS011;1685;53.104;8.228;2022-09-13T09:41:11;6.07;;;2.03;;
3343;SDS011;1685;53.104;8.228;2022-09-13T09:43:45;6.07;;;1.80;;
3343;SDS011;1685;53.104;8.228;2022-09-13T09:46:16;8.60;;;1.57;;
3343;SDS011;1685;53.104;8.228;2022-09-13T09:48:49;8.43;;;1.70;;
3343;SDS011;1685;53.104;8.228;2022-09-13T09:51:19;3.77;;;1.67;;
3343;SDS011;1685;53.104;8.228;2022-09-13T09:53:51;4.93;;;2.40;;
3343;SDS011;1685;53.104;8.228;2022-09-13T09:56:24;9.23;;;3.23;;
3343;SDS011;1685;53.104;8.228;2022-09-13T09:58:55;10.33;;;1.80;;
3343;SDS011;1685;53.104;8.228;2022-09-13T10:01:23;6.47;;;1.73;;
3343;SDS011;1685;53.104;8.228;2022-09-13T10:03:57;12.07;;;1.77;;
3343;SDS011;1685;53.104;8.228;2022-09-13T10:06:29;2.60;;;1.30;;
3343;SDS011;1685;53.104;8.228;2022-09-13T10:08:57;3.43;;;1.10;;
3343;SDS011;1685;53.104;8.228;2022-09-13T10:11:39;6.10;;;1.23;;
3343;SDS011;1685;53.104;8.228;2022-09-13T10:17:08;3.03;;;1.10;;
3343;SDS011;1685;53.104;8.228;2022-09-13T10:19:41;4.43;;;1.20;;
3343;SDS011;1685;53.104;8.228;2022-09-13T10:22:18;3.17;;;0.80;;
3343;SDS011;1685;53.104;8.228;2022-09-13T10:24:45;4.00;;;0.93;;
3343;SDS011;1685;53.104;8.228;2022-09-13T10:27:19;10.03;;;1.43;;
3343;SDS011;1685;53.104;8.228;2022-09-13T10:29:50;4.73;;;1.10;;
3343;SDS011;1685;53.104;8.228;2022-09-13T10:32:20;5.20;;;1.50;;
3343;SDS011;1685;53.104;8.228;2022-09-13T10:34:48;9.77;;;1.27;;
3343;SDS011;1685;53.104;8.228;2022-09-13T10:37:16;7.50;;;1.47;;
3343;SDS011;1685;53.104;8.228;2022-09-13T10:39:54;2.73;;;0.90;;
3343;SDS011;1685;53.104;8.228;2022-09-13T10:42:27;4.77;;;1.03;;
3343;SDS011;1685;53.104;8.228;2022-09-13T10:44:59;1.53;;;0.80;;
3343;SDS011;1685;53.104;8.228;2022-09-13T10:47:28;3.63;;;1.00;;
3343;SDS011;1685;53.104;8.228;2022-09-13T10:50:10;3.73;;;1.07;;
3343;SDS011;1685;53.104;8.228;2022-09-13T10:52:44;3.90;;;0.90;;
3343;SDS011;1685;53.104;8.228;2022-09-13T10:55:21;3.60;;;0.87;;
3343;SDS011;1685;53.104;8.228;2022-09-13T10:57:51;2.97;;;1.40;;
3343;SDS011;1685;53.104;8.228;2022-09-13T11:00:20;2.70;;;1.10;;
3343;SDS011;1685;53.104;8.228;2022-09-13T11:05:46;3.37;;;1.17;;
3343;SDS011;1685;53.104;8.228;2022-09-13T11:08:24;4.77;;;1.10;;
3343;SDS011;1685;53.104;8.228;2022-09-13T11:11:04;4.73;;;1.17;;
3343;SDS011;1685;53.104;8.228;2022-09-13T11:13:39;6.43;;;1.03;;
3343;SDS011;1685;53.104;8.228;2022-09-13T11:16:31;4.70;;;1.63;;
3343;SDS011;1685;53.104;8.228;2022-09-13T11:19:22;3.70;;;0.87;;
3343;SDS011;1685;53.104;8.228;2022-09-13T11:22:18;8.50;;;1.67;;
3343;SDS011;1685;53.104;8.228;2022-09-13T11:27:48;4.70;;;1.57;;
3343;SDS011;1685;53.104;8.228;2022-09-13T11:30:19;2.03;;;0.90;;
3343;SDS011;1685;53.104;8.228;2022-09-13T11:32:54;2.37;;;1.87;;
3343;SDS011;1685;53.104;8.228;2022-09-13T11:35:46;10.03;;;2.10;;
3343;SDS011;1685;53.104;8.228;2022-09-13T11:38:26;1.70;;;0.93;;
3343;SDS011;1685;53.104;8.228;2022-09-13T11:41:03;5.90;;;1.10;;
3343;SDS011;1685;53.104;8.228;2022-09-13T11:43:45;5.60;;;1.63;;
3343;SDS011;1685;53.104;8.228;2022-09-13T11:46:22;7.43;;;1.67;;
3343;SDS011;1685;53.104;8.228;2022-09-13T11:52:05;3.73;;;1.10;;
3343;SDS011;1685;53.104;8.228;2022-09-13T11:54:41;3.40;;;1.07;;
3343;SDS011;1685;53.104;8.228;2022-09-13T11:57:23;5.20;;;1.50;;
3343;SDS011;1685;53.104;8.228;2022-09-13T11:59:54;9.73;;;1.27;;
3343;SDS011;1685;53.104;8.228;2022-09-13T12:02:25;3.87;;;0.90;;
3343;SDS011;1685;53.104;8.228;2022-09-13T12:04:58;6.73;;;1.00;;
3343;SDS011;1685;53.104;8.228;2022-09-13T12:07:32;3.83;;;1.10;;
3343;SDS011;1685;53.104;8.228;2022-09-13T12:10:05;6.10;;;1.30;;
3343;SDS011;1685;53.104;8.228;2022-09-13T12:12:38;4.13;;;1.30;;
3343;SDS011;1685;53.104;8.228;2022-09-13T12:15:13;5.70;;;1.40;;
3343;SDS011;1685;53.104;8.228;2022-09-13T12:17:42;5.70;;;1.00;;
3343;SDS011;1685;53.104;8.228;2022-09-13T12:20:13;5.87;;;1.60;;
3343;SDS011;1685;53.104;8.228;2022-09-13T12:22:46;5.23;;;1.37;;
3343;SDS011;1685;53.104;8.228;2022-09-13T12:25:17;4.03;;;1.00;;
3343;SDS011;1685;53.104;8.228;2022-09-13T12:27:50;3.70;;;1.50;;
3343;SDS011;1685;53.104;8.228;2022-09-13T12:30:22;4.63;;;1.13;;
3343;SDS011;1685;53.104;8.228;2022-09-13T12:32:52;3.13;;;1.30;;
3343;SDS011;1685;53.104;8.228;2022-09-13T12:35:22;5.47;;;1.17;;
3343;SDS011;1685;53.104;8.228;2022-09-13T12:38:10;2.10;;;1.10;;
3343;SDS011;1685;53.104;8.228;2022-09-13T12:40:53;2.70;;;1.00;;
3343;SDS011;1685;53.104;8.228;2022-09-13T12:43:32;3.80;;;1.17;;
3343;SDS011;1685;53.104;8.228;2022-09-13T12:46:31;3.80;;;1.40;;
3343;SDS011;1685;53.104;8.228;2022-09-13T12:49:32;3.93;;;1.20;;
3343;SDS011;1685;53.104;8.228;2022-09-13T12:52:21;3.60;;;1.20;;
3343;SDS011;1685;53.104;8.228;2022-09-13T12:58:16;3.23;;;0.90;;
3343;SDS011;1685;53.104;8.228;2022-09-13T13:01:01;3.90;;;1.23;;
3343;SDS011;1685;53.104;8.228;2022-09-13T13:03:34;5.03;;;1.13;;
3343;SDS011;1685;53.104;8.228;2022-09-13T13:06:10;8.30;;;1.40;;
3343;SDS011;1685;53.104;8.228;2022-09-13T13:08:48;9.00;;;1.83;;
3343;SDS011;1685;53.104;8.228;2022-09-13T13:11:19;5.80;;;1.30;;
3343;SDS011;1685;53.104;8.228;2022-09-13T13:13:52;3.37;;;1.17;;
3343;SDS011;1685;53.104;8.228;2022-09-13T13:16:23;3.37;;;1.43;;
3343;SDS011;1685;53.104;8.228;2022-09-13T13:18:53;3.37;;;1.17;;
3343;SDS011;1685;53.104;8.228;2022-09-13T13:21:25;2.50;;;1.30;;
3343;SDS011;1685;53.104;8.228;2022-09-13T13:33:11;3.30;;;1.20;;
3343;SDS011;1685;53.104;8.228;2022-09-13T13:35:41;3.30;;;1.40;;
3343;SDS011;1685;53.104;8.228;2022-09-13T13:38:16;4.23;;;1.10;;
3343;SDS011;1685;53.104;8.228;2022-09-13T13:41:06;6.87;;;1.20;;
3343;SDS011;1685;53.104;8.228;2022-09-13T13:43:55;11.50;;;1.60;;
3343;SDS011;1685;53.104;8.228;2022-09-13T13:46:26;2.70;;;1.27;;
3343;SDS011;1685;53.104;8.228;2022-09-13T13:48:55;8.27;;;1.37;;
3343;SDS011;1685;53.104;8.228;2022-09-13T13:51:26;4.50;;;0.90;;
3343;SDS011;1685;53.104;8.228;2022-09-13T13:53:55;4.97;;;1.10;;
3343;SDS011;1685;53.104;8.228;2022-09-13T13:56:28;3.80;;;0.93;;
3343;SDS011;1685;53.104;8.228;2022-09-13T13:58:59;6.57;;;1.30;;
3343;SDS011;1685;53.104;8.228;2022-09-13T14:01:32;4.10;;;1.20;;
3343;SDS011;1685;53.104;8.228;2022-09-13T14:04:07;7.57;;;1.53;;
3343;SDS011;1685;53.104;8.228;2022-09-13T14:07:11;2.60;;;1.00;;
3343;SDS011;1685;53.104;8.228;2022-09-13T14:09:55;3.07;;;1.13;;
3343;SDS011;1685;53.104;8.228;2022-09-13T14:12:29;3.40;;;0.93;;
3343;SDS011;1685;53.104;8.228;2022-09-13T14:15:14;4.87;;;1.10;;
3343;SDS011;1685;53.104;8.228;2022-09-13T14:21:01;4.20;;;1.03;;
3343;SDS011;1685;53.104;8.228;2022-09-13T14:23:31;5.50;;;1.27;;
3343;SDS011;1685;53.104;8.228;2022-09-13T14:25:59;3.63;;;0.90;;
3343;SDS011;1685;53.104;8.228;2022-09-13T14:28:26;3.07;;;1.30;;
3343;SDS011;1685;53.104;8.228;2022-09-13T14:30:55;4.30;;;1.10;;
3343;SDS011;1685;53.104;8.228;2022-09-13T14:33:24;3.17;;;1.20;;
3343;SDS011;1685;53.104;8.228;2022-09-13T14:35:56;6.33;;;1.53;;
3343;SDS011;1685;53.104;8.228;2022-09-13T14:38:26;8.47;;;1.63;;
3343;SDS011;1685;53.104;8.228;2022-09-13T14:40:58;5.93;;;1.57;;
3343;SDS011;1685;53.104;8.228;2022-09-13T14:43:28;3.13;;;1.30;;
3343;SDS011;1685;53.104;8.228;2022-09-13T14:45:58;5.60;;;1.30;;
3343;SDS011;1685;53.104;8.228;2022-09-13T14:48:29;4.73;;;1.30;;
3343;SDS011;1685;53.104;8.228;2022-09-13T14:51:01;6.13;;;1.07;;
3343;SDS011;1685;53.104;8.228;2022-09-13T14:53:33;2.30;;;1.10;;
3343;SDS011;1685;53.104;8.228;2022-09-13T14:56:01;4.23;;;1.50;;
3343;SDS011;1685;53.104;8.228;2022-09-13T14:58:34;10.23;;;1.33;;
3343;SDS011;1685;53.104;8.228;2022-09-13T15:01:09;6.73;;;1.27;;
3343;SDS011;1685;53.104;8.228;2022-09-13T15:03:40;5.50;;;1.53;;
3343;SDS011;1685;53.104;8.228;2022-09-13T15:06:17;6.00;;;1.50;;
3343;SDS011;1685;53.104;8.228;2022-09-13T15:08:47;6.87;;;1.70;;
3343;SDS011;1685;53.104;8.228;2022-09-13T15:11:24;10.37;;;1.70;;
3343;SDS011;1685;53.104;8.228;2022-09-13T15:14:00;5.23;;;1.07;;
3343;SDS011;1685;53.104;8.228;2022-09-13T15:16:30;8.63;;;1.07;;
3343;SDS011;1685;53.104;8.228;2022-09-13T15:19:15;7.57;;;1.57;;
3343;SDS011;1685;53.104;8.228;2022-09-13T15:21:51;9.27;;;1.70;;
3343;SDS011;1685;53.104;8.228;2022-09-13T15:24:28;4.70;;;1.43;;
3343;SDS011;1685;53.104;8.228;2022-09-13T15:27:03;4.80;;;1.30;;
3343;SDS011;1685;53.104;8.228;2022-09-13T15:29:31;4.53;;;1.57;;
3343;SDS011;1685;53.104;8.228;2022-09-13T15:32:01;2.47;;;1.07;;
3343;SDS011;1685;53.104;8.228;2022-09-13T15:34:28;9.10;;;1.67;;
3343;SDS011;1685;53.104;8.228;2022-09-13T15:37:06;4.70;;;1.10;;
3343;SDS011;1685;53.104;8.228;2022-09-13T15:39:42;4.80;;;1.30;;
3343;SDS011;1685;53.104;8.228;2022-09-13T15:42:10;4.30;;;1.53;;
3343;SDS011;1685;53.104;8.228;2022-09-13T15:44:37;9.33;;;2.13;;
3343;SDS011;1685;53.104;8.228;2022-09-13T15:47:08;4.80;;;1.43;;
3343;SDS011;1685;53.104;8.228;2022-09-13T15:49:36;9.40;;;1.57;;
3343;SDS011;1685;53.104;8.228;2022-09-13T15:52:05;5.37;;;1.20;;
3343;SDS011;1685;53.104;8.228;2022-09-13T15:54:33;7.77;;;1.40;;
3343;SDS011;1685;53.104;8.228;2022-09-13T15:57:01;7.13;;;1.50;;
3343;SDS011;1685;53.104;8.228;2022-09-13T15:59:32;1.57;;;1.13;;
3343;SDS011;1685;53.104;8.228;2022-09-13T16:01:59;5.87;;;1.33;;